createdAt,value
2023-01-05T00:01:06.894Z,0.70
2023-01-05T00:03:33.676Z,0.57
2023-01-05T00:06:04.783Z,0.70
2023-01-05T00:08:36.972Z,0.68
2023-01-05T00:11:24.234Z,0.47
2023-01-05T00:14:09.115Z,0.70
2023-01-05T00:16:54.472Z,0.73
2023-01-05T00:19:39.431Z,0.88
2023-01-05T00:22:32.355Z,0.50
2023-01-05T00:24:59.071Z,1.00
2023-01-05T00:27:26.112Z,0.68
2023-01-05T00:29:52.668Z,0.70
2023-01-05T00:32:19.411Z,0.60
2023-01-05T00:34:45.939Z,0.63
2023-01-05T00:37:12.535Z,0.70
2023-01-05T00:39:39.013Z,0.85
2023-01-05T00:42:05.646Z,0.70
2023-01-05T00:44:32.253Z,0.80
2023-01-05T00:46:58.799Z,0.65
2023-01-05T00:49:25.303Z,0.60
2023-01-05T00:51:51.763Z,0.70
2023-01-05T00:54:18.254Z,0.60
2023-01-05T00:56:46.527Z,0.60
2023-01-05T00:59:13.003Z,0.50
2023-01-05T01:01:39.745Z,0.60
2023-01-05T01:04:06.543Z,0.63
2023-01-05T01:06:33.892Z,0.70
2023-01-05T01:09:03.498Z,0.47
2023-01-05T01:11:34.030Z,0.80
2023-01-05T01:14:02.828Z,0.60
2023-01-05T01:16:31.055Z,0.50
2023-01-05T01:19:00.540Z,0.68
2023-01-05T01:21:29.556Z,0.30
2023-01-05T01:23:56.074Z,0.50
2023-01-05T01:26:22.624Z,0.68
2023-01-05T01:28:49.148Z,0.68
2023-01-05T01:31:16.982Z,0.52
2023-01-05T01:33:43.932Z,0.73
2023-01-05T01:36:12.493Z,0.50
2023-01-05T01:38:39.168Z,0.68
2023-01-05T01:41:05.856Z,0.55
2023-01-05T01:43:50.394Z,0.45
2023-01-05T01:46:19.634Z,0.60
2023-01-05T01:49:00.844Z,0.50
2023-01-05T01:51:30.872Z,0.43
2023-01-05T01:54:03.627Z,0.50
2023-01-05T01:56:32.953Z,0.47
2023-01-05T01:58:59.494Z,0.50
2023-01-05T02:01:26.084Z,0.35
2023-01-05T02:03:52.833Z,0.35
2023-01-05T02:06:19.416Z,0.43
2023-01-05T02:08:46.183Z,0.55
2023-01-05T02:11:31.131Z,0.43
2023-01-05T02:14:03.595Z,0.73
2023-01-05T02:16:35.896Z,0.40
2023-01-05T02:19:08.278Z,0.40
2023-01-05T02:21:40.814Z,0.60
2023-01-05T02:24:17.882Z,0.45
2023-01-05T02:26:44.353Z,0.40
2023-01-05T02:29:25.836Z,0.47
2023-01-05T02:31:52.335Z,0.30
2023-01-05T02:34:28.044Z,0.40
2023-01-05T02:37:07.766Z,0.50
2023-01-05T02:39:34.710Z,0.30
2023-01-05T02:42:07.344Z,0.55
2023-01-05T02:44:34.541Z,0.60
2023-01-05T02:47:03.753Z,0.55
2023-01-05T02:49:32.119Z,0.50
2023-01-05T02:52:02.230Z,0.50
2023-01-05T02:54:55.590Z,0.50
2023-01-05T02:57:51.051Z,0.50
2023-01-05T03:00:23.351Z,0.40
2023-01-05T03:02:51.932Z,0.47
2023-01-05T03:05:23.217Z,0.40
2023-01-05T03:07:52.097Z,0.40
2023-01-05T03:10:38.390Z,0.50
2023-01-05T03:13:25.042Z,0.55
2023-01-05T03:15:59.234Z,0.40
2023-01-05T03:18:27.528Z,0.50
2023-01-05T03:20:55.950Z,0.50
2023-01-05T03:23:41.645Z,0.30
2023-01-05T03:26:28.363Z,0.52
2023-01-05T03:29:20.556Z,0.40
2023-01-05T03:32:35.076Z,0.47
2023-01-05T03:35:27.079Z,0.40
2023-01-05T03:37:59.287Z,0.50
2023-01-05T03:40:27.812Z,0.47
2023-01-05T03:42:54.972Z,0.52
2023-01-05T03:45:23.783Z,0.30
2023-01-05T03:47:51.516Z,0.30
2023-01-05T03:50:18.344Z,0.40
2023-01-05T03:52:46.074Z,0.50
2023-01-05T03:55:13.021Z,0.40
2023-01-05T03:57:41.385Z,0.40
2023-01-05T04:00:08.558Z,0.40
2023-01-05T04:02:35.179Z,0.45
2023-01-05T04:05:01.873Z,0.50
2023-01-05T04:07:28.436Z,0.40
2023-01-05T04:09:55.122Z,0.63
2023-01-05T04:12:21.683Z,0.30
2023-01-05T04:14:48.234Z,0.40
2023-01-05T04:17:14.770Z,0.50
2023-01-05T04:19:41.269Z,0.32
2023-01-05T04:22:07.777Z,0.40
2023-01-05T04:24:34.305Z,0.35
2023-01-05T04:27:00.881Z,0.40
2023-01-05T04:29:27.458Z,0.40
2023-01-05T04:31:54.044Z,0.50
2023-01-05T04:34:21.348Z,0.40
2023-01-05T04:36:49.473Z,0.40
2023-01-05T04:39:16.232Z,0.30
2023-01-05T04:41:42.712Z,0.43
2023-01-05T04:44:09.404Z,0.50
2023-01-05T04:46:36.022Z,0.20
2023-01-05T04:49:02.552Z,0.68
2023-01-05T04:51:29.276Z,0.30
2023-01-05T04:53:55.822Z,0.40
2023-01-05T04:56:22.380Z,0.40
2023-01-05T04:58:48.935Z,0.30
2023-01-05T05:01:15.544Z,0.52
2023-01-05T05:03:42.459Z,0.45
2023-01-05T05:06:09.054Z,0.30
2023-01-05T05:08:35.593Z,0.40
2023-01-05T05:11:02.101Z,0.30
2023-01-05T05:13:28.696Z,0.45
2023-01-05T05:15:55.266Z,0.63
2023-01-05T05:18:22.251Z,0.50
2023-01-05T05:20:50.974Z,0.40
2023-01-05T05:23:17.531Z,0.40
2023-01-05T05:25:44.108Z,0.38
2023-01-05T05:28:10.636Z,0.47
2023-01-05T05:30:37.458Z,0.40
2023-01-05T05:33:03.954Z,0.32
2023-01-05T05:35:30.438Z,0.30
2023-01-05T05:37:57.116Z,0.38
2023-01-05T05:40:23.887Z,0.50
2023-01-05T05:42:50.417Z,0.40
2023-01-05T05:45:16.893Z,0.60
2023-01-05T05:47:43.639Z,0.30
2023-01-05T05:50:10.424Z,0.30
2023-01-05T05:52:36.918Z,0.35
2023-01-05T05:55:03.933Z,0.40
2023-01-05T05:57:30.548Z,0.43
2023-01-05T05:59:57.098Z,0.25
2023-01-05T06:02:23.699Z,0.40
2023-01-05T06:04:50.237Z,0.40
2023-01-05T06:07:16.712Z,0.47
2023-01-05T06:09:43.291Z,0.40
2023-01-05T06:12:09.798Z,0.30
2023-01-05T06:14:36.463Z,0.40
2023-01-05T06:17:03.072Z,0.43
2023-01-05T06:19:29.594Z,0.40
2023-01-05T06:21:56.140Z,0.30
2023-01-05T06:24:22.715Z,0.40
2023-01-05T06:26:49.188Z,0.38
2023-01-05T06:29:15.789Z,0.38
2023-01-05T06:31:42.382Z,0.35
2023-01-05T06:34:08.963Z,0.28
2023-01-05T06:36:35.604Z,0.40
2023-01-05T06:39:02.193Z,0.30
2023-01-05T06:41:28.704Z,0.40
2023-01-05T06:43:55.154Z,0.50
2023-01-05T06:46:21.736Z,0.40
2023-01-05T06:48:48.244Z,0.40
2023-01-05T06:51:14.710Z,0.30
2023-01-05T06:53:41.328Z,0.40
2023-01-05T06:56:08.023Z,0.30
2023-01-05T06:58:34.559Z,0.30
2023-01-05T07:01:01.220Z,0.40
2023-01-05T07:03:27.960Z,0.30
2023-01-05T07:05:54.875Z,0.28
2023-01-05T07:08:21.540Z,0.32
2023-01-05T07:10:48.027Z,0.30
2023-01-05T07:13:14.471Z,0.30
2023-01-05T07:15:41.344Z,0.40
2023-01-05T07:18:07.974Z,0.30
2023-01-05T07:20:34.671Z,0.38
2023-01-05T07:23:01.110Z,0.35
2023-01-05T07:25:31.614Z,0.45
2023-01-05T07:27:58.564Z,0.43
2023-01-05T07:30:25.093Z,0.45
2023-01-05T07:32:51.656Z,0.30
2023-01-05T07:35:18.128Z,0.30
2023-01-05T07:37:44.630Z,0.38
2023-01-05T07:40:11.636Z,0.50
2023-01-05T07:42:38.143Z,0.30
2023-01-05T07:45:05.040Z,0.20
2023-01-05T07:47:31.553Z,0.40
2023-01-05T07:49:58.040Z,0.40
2023-01-05T07:52:24.572Z,0.20
2023-01-05T07:54:51.096Z,0.55
2023-01-05T07:57:17.536Z,0.43
2023-01-05T07:59:44.012Z,0.40
2023-01-05T08:02:11.044Z,0.40
2023-01-05T08:04:37.757Z,0.52
2023-01-05T08:07:07.773Z,0.40
2023-01-05T08:09:52.803Z,0.30
2023-01-05T08:12:19.372Z,0.30
2023-01-05T08:14:46.323Z,0.20
2023-01-05T08:17:13.040Z,0.30
2023-01-05T08:19:39.497Z,0.32
2023-01-05T08:22:05.941Z,0.50
2023-01-05T08:24:32.439Z,0.70
2023-01-05T08:26:59.338Z,1.40
2023-01-05T08:29:25.922Z,0.60
2023-01-05T08:31:52.567Z,0.85
2023-01-05T08:34:19.049Z,0.50
2023-01-05T08:36:46.557Z,0.50
2023-01-05T08:39:13.580Z,0.65
2023-01-05T08:41:40.448Z,0.70
2023-01-05T08:44:07.719Z,0.75
2023-01-05T08:46:35.443Z,0.93
2023-01-05T08:49:03.412Z,1.02
2023-01-05T08:51:30.626Z,0.73
2023-01-05T08:53:57.169Z,0.50
2023-01-05T08:56:25.234Z,0.77
2023-01-05T08:58:52.880Z,0.45
2023-01-05T09:01:21.071Z,0.63
2023-01-05T09:03:48.074Z,0.70
2023-01-05T09:06:14.958Z,0.40
2023-01-05T09:08:42.049Z,0.55
2023-01-05T09:11:12.940Z,0.40
2023-01-05T09:13:39.973Z,0.40
2023-01-05T09:16:13.761Z,0.47
2023-01-05T09:18:41.218Z,0.40
2023-01-05T09:21:08.209Z,0.40
2023-01-05T09:23:35.201Z,0.40
2023-01-05T09:26:04.098Z,0.40
2023-01-05T09:28:30.568Z,0.40
2023-01-05T09:30:57.146Z,0.52
2023-01-05T09:33:24.997Z,0.30
2023-01-05T09:35:56.088Z,1.02
2023-01-05T09:38:23.347Z,0.70
2023-01-05T09:40:52.262Z,0.50
2023-01-05T09:43:29.296Z,0.30
2023-01-05T09:45:56.467Z,0.50
2023-01-05T09:48:25.035Z,0.40
2023-01-05T09:50:52.215Z,0.50
2023-01-05T09:53:23.965Z,0.30
2023-01-05T09:55:50.687Z,0.32
2023-01-05T09:58:23.562Z,0.30
2023-01-05T10:01:07.057Z,0.40
2023-01-05T10:04:02.801Z,0.60
2023-01-05T10:06:26.617Z,0.45
2023-01-05T10:08:53.657Z,0.68
2023-01-05T10:11:48.206Z,0.38
2023-01-05T10:14:20.103Z,0.38
2023-01-05T10:16:48.470Z,0.40
2023-01-05T10:19:20.926Z,0.50
2023-01-05T10:21:53.568Z,0.50
2023-01-05T10:24:21.441Z,0.60
2023-01-05T10:27:24.302Z,0.43
2023-01-05T10:29:47.452Z,0.50
2023-01-05T10:32:29.227Z,0.60
2023-01-05T10:34:55.999Z,0.60
2023-01-05T10:37:35.277Z,0.50
2023-01-05T10:40:17.057Z,0.40
2023-01-05T10:42:51.230Z,0.40
2023-01-05T10:45:19.238Z,0.57
2023-01-05T10:47:46.291Z,0.63
2023-01-05T10:50:22.157Z,0.60
2023-01-05T10:52:48.717Z,0.55
2023-01-05T10:55:16.395Z,0.60
2023-01-05T10:57:43.118Z,0.80
2023-01-05T11:00:19.643Z,0.57
2023-01-05T11:02:49.809Z,0.63
2023-01-05T11:05:22.237Z,0.57
2023-01-05T11:07:50.255Z,0.45
2023-01-05T11:10:25.953Z,0.60
2023-01-05T11:12:54.708Z,0.57
2023-01-05T11:15:21.554Z,0.93
2023-01-05T11:17:48.205Z,0.68
2023-01-05T11:20:15.954Z,0.88
2023-01-05T11:22:44.483Z,0.70
2023-01-05T11:25:26.700Z,0.80
2023-01-05T11:28:12.763Z,0.90
2023-01-05T11:30:45.445Z,0.80
2023-01-05T11:33:16.212Z,1.30
2023-01-05T11:35:46.463Z,1.10
2023-01-05T11:38:21.431Z,2.13
2023-01-05T11:40:48.067Z,1.20
2023-01-05T11:43:17.720Z,1.20
2023-01-05T11:45:52.365Z,1.30
2023-01-05T11:48:21.120Z,1.90
2023-01-05T11:50:51.714Z,1.50
2023-01-05T11:53:33.619Z,2.22
2023-01-05T11:56:21.990Z,1.85
2023-01-05T11:58:49.522Z,1.80
2023-01-05T12:01:28.301Z,1.63
2023-01-05T12:04:06.454Z,1.90
2023-01-05T12:06:52.244Z,2.60
2023-01-05T12:09:19.038Z,1.52
2023-01-05T12:12:04.179Z,1.90
2023-01-05T12:14:33.559Z,1.67
2023-01-05T12:17:03.869Z,1.60
2023-01-05T12:19:49.329Z,1.10
2023-01-05T12:22:15.829Z,1.60
2023-01-05T12:24:48.987Z,2.42
2023-01-05T12:27:35.649Z,1.60
2023-01-05T12:36:05.071Z,1.55
2023-01-05T12:38:48.724Z,1.33
2023-01-05T12:41:27.857Z,1.52
2023-01-05T12:43:54.751Z,1.48
2023-01-05T12:46:34.037Z,1.40
2023-01-05T12:49:06.470Z,1.40
2023-01-05T12:51:36.997Z,1.50
2023-01-05T12:54:15.638Z,1.35
2023-01-05T12:56:51.997Z,1.42
2023-01-05T12:59:35.317Z,1.58
2023-01-05T13:02:08.169Z,1.75
2023-01-05T13:04:48.461Z,1.38
2023-01-05T13:07:24.293Z,1.52
2023-01-05T13:10:02.085Z,1.17
2023-01-05T13:12:30.249Z,1.40
2023-01-05T13:15:12.790Z,1.30
2023-01-05T13:17:42.610Z,1.30
2023-01-05T13:20:18.133Z,1.17
2023-01-05T13:22:45.020Z,1.17
2023-01-05T13:25:19.263Z,1.10
2023-01-05T13:27:46.584Z,1.17
2023-01-05T13:30:20.289Z,1.05
2023-01-05T13:33:05.408Z,1.23
2023-01-05T13:35:42.300Z,1.30
2023-01-05T13:38:20.910Z,1.20
2023-01-05T13:40:53.563Z,1.33
2023-01-05T13:43:29.960Z,0.90
2023-01-05T13:46:05.400Z,1.35
2023-01-05T13:48:44.645Z,0.85
2023-01-05T13:51:31.800Z,1.00
2023-01-05T13:54:02.173Z,1.20
2023-01-05T13:56:29.219Z,1.20
2023-01-05T13:58:59.351Z,0.98
2023-01-05T14:01:42.666Z,1.10
2023-01-05T14:04:32.670Z,1.27
2023-01-05T14:07:01.344Z,0.80
2023-01-05T14:09:34.349Z,0.93
2023-01-05T14:12:16.465Z,1.00
2023-01-05T14:15:01.729Z,1.00
2023-01-05T14:17:46.738Z,1.00
2023-01-05T14:20:31.738Z,0.73
2023-01-05T14:22:58.489Z,1.00
2023-01-05T14:25:40.156Z,0.80
2023-01-05T14:28:21.915Z,0.70
2023-01-05T14:30:51.823Z,0.80
2023-01-05T14:33:19.277Z,0.73
2023-01-05T14:35:46.176Z,1.08
2023-01-05T14:38:23.912Z,0.70
2023-01-05T14:40:54.095Z,0.90
2023-01-05T14:43:23.220Z,1.05
2023-01-05T14:46:16.155Z,0.70
2023-01-05T14:48:45.436Z,0.90
2023-01-05T14:51:18.097Z,1.00
2023-01-05T14:53:48.632Z,0.80
2023-01-05T14:56:15.414Z,0.80
2023-01-05T14:58:42.087Z,0.82
2023-01-05T15:01:18.289Z,0.90
2023-01-05T15:03:47.781Z,1.10
2023-01-05T15:06:36.757Z,1.05
2023-01-05T15:09:09.821Z,0.95
2023-01-05T15:11:36.600Z,0.90
2023-01-05T15:14:32.696Z,1.30
2023-01-05T15:17:02.166Z,0.98
2023-01-05T15:19:47.486Z,1.05
2023-01-05T15:22:37.604Z,1.15
2023-01-05T15:25:17.144Z,1.23
2023-01-05T15:28:02.857Z,1.00
2023-01-05T15:30:48.346Z,1.17
2023-01-05T15:33:14.852Z,0.90
2023-01-05T15:35:53.729Z,1.08
2023-01-05T15:38:24.810Z,1.13
2023-01-05T15:40:57.925Z,1.05
2023-01-05T15:43:24.664Z,0.95
2023-01-05T15:45:53.496Z,1.20
2023-01-05T15:48:32.926Z,0.98
2023-01-05T15:51:00.576Z,1.17
2023-01-05T15:53:33.136Z,1.00
2023-01-05T15:56:00.514Z,1.00
2023-01-05T15:58:29.235Z,1.05
2023-01-05T16:01:06.499Z,1.00
2023-01-05T16:03:37.595Z,0.85
2023-01-05T16:06:06.548Z,1.00
2023-01-05T16:08:34.962Z,1.13
2023-01-05T16:11:06.023Z,1.08
2023-01-05T16:13:35.308Z,1.40
2023-01-05T16:16:03.143Z,1.20
2023-01-05T16:18:32.713Z,1.33
2023-01-05T16:21:05.082Z,1.08
2023-01-05T16:23:31.669Z,1.15
2023-01-05T16:25:58.891Z,1.15
2023-01-05T16:28:25.862Z,1.20
2023-01-05T16:30:53.302Z,1.00
2023-01-05T16:33:36.290Z,1.10
2023-01-05T16:36:17.930Z,1.17
2023-01-05T16:38:44.870Z,1.27
2023-01-05T16:41:22.015Z,1.23
2023-01-05T16:44:01.196Z,1.08
2023-01-05T16:46:29.692Z,0.77
2023-01-05T16:48:58.427Z,1.02
2023-01-05T16:51:39.255Z,1.38
2023-01-05T16:54:19.155Z,1.00
2023-01-05T16:56:57.904Z,1.13
2023-01-05T16:59:40.522Z,1.13
2023-01-05T17:02:26.749Z,1.20
2023-01-05T17:04:53.569Z,1.10
2023-01-05T17:07:20.198Z,1.52
2023-01-05T17:09:46.740Z,0.90
2023-01-05T17:12:13.729Z,1.65
2023-01-05T17:14:41.509Z,1.30
2023-01-05T17:17:14.292Z,1.67
2023-01-05T17:19:41.015Z,2.60
2023-01-05T17:22:11.735Z,3.05
2023-01-05T17:24:39.619Z,3.65
2023-01-05T17:27:06.292Z,3.03
2023-01-05T17:29:33.291Z,2.80
2023-01-05T17:31:59.937Z,9.52
2023-01-05T17:34:26.549Z,5.82
2023-01-05T17:36:57.310Z,5.47
2023-01-05T17:39:24.316Z,4.63
2023-01-05T17:41:50.891Z,6.20
2023-01-05T17:44:17.812Z,5.35
2023-01-05T17:46:45.511Z,6.72
2023-01-05T17:49:16.307Z,5.72
2023-01-05T17:51:43.180Z,5.65
2023-01-05T17:54:10.051Z,5.07
2023-01-05T17:56:36.633Z,5.45
2023-01-05T17:59:04.891Z,5.05
2023-01-05T18:01:33.663Z,0.10
2023-01-05T18:04:00.351Z,0.13
2023-01-05T18:06:26.871Z,0.10
2023-01-05T18:08:53.409Z,0.10
2023-01-05T18:11:19.935Z,0.10
2023-01-05T18:13:46.463Z,0.20
2023-01-05T18:16:13.487Z,0.10
2023-01-05T18:18:40.182Z,0.10
2023-01-05T18:21:07.431Z,0.10
2023-01-05T18:23:34.454Z,0.10
2023-01-05T18:26:07.534Z,0.10
2023-01-05T18:28:34.277Z,0.20
2023-01-05T18:31:01.364Z,0.10
2023-01-05T18:33:28.172Z,0.20
2023-01-05T18:38:21.768Z,0.10
2023-01-05T18:40:49.781Z,0.10
2023-01-05T18:43:16.599Z,0.20
2023-01-05T18:45:43.138Z,0.10
2023-01-05T18:48:09.834Z,0.20
2023-01-05T18:50:39.771Z,0.10
2023-01-05T18:53:06.391Z,0.15
2023-01-05T18:55:32.970Z,0.20
2023-01-05T18:57:59.353Z,0.20
2023-01-05T19:00:25.892Z,0.10
2023-01-05T19:02:52.492Z,0.20
2023-01-05T19:05:19.071Z,0.20
2023-01-05T19:07:45.595Z,0.20
2023-01-05T19:10:12.172Z,0.10
2023-01-05T19:12:38.754Z,0.20
2023-01-05T19:15:05.454Z,0.10
2023-01-05T19:17:33.731Z,0.20
2023-01-05T19:20:00.348Z,0.10
2023-01-05T19:22:27.217Z,0.20
2023-01-05T19:24:53.818Z,0.10
2023-01-05T19:27:21.789Z,0.20
2023-01-05T19:29:48.344Z,0.20
2023-01-05T19:32:14.902Z,0.20
2023-01-05T19:34:41.922Z,0.20
2023-01-05T19:37:08.503Z,0.10
2023-01-05T19:39:35.276Z,0.20
2023-01-05T19:42:01.846Z,0.10
2023-01-05T19:44:28.258Z,0.10
2023-01-05T19:46:54.815Z,0.10
2023-01-05T19:49:22.905Z,0.20
2023-01-05T19:51:50.571Z,0.20
2023-01-05T19:54:17.469Z,0.20
2023-01-05T19:56:44.457Z,0.20
2023-01-05T19:59:21.958Z,0.20
2023-01-05T20:01:48.959Z,0.20
2023-01-05T20:04:15.783Z,0.10
2023-01-05T20:06:44.298Z,0.10
2023-01-05T20:09:12.710Z,0.20
2023-01-05T20:11:40.250Z,0.13
2023-01-05T20:14:12.731Z,0.20
2023-01-05T20:16:39.768Z,0.10
2023-01-05T20:19:06.498Z,0.13
2023-01-05T20:21:33.332Z,0.20
2023-01-05T20:24:01.475Z,0.20
2023-01-05T20:26:29.390Z,0.15
2023-01-05T20:28:59.990Z,0.10
2023-01-05T20:31:28.450Z,0.20
2023-01-05T20:33:55.770Z,0.20
2023-01-05T20:36:22.946Z,0.10
2023-01-05T20:38:49.615Z,0.20
2023-01-05T20:41:26.331Z,0.10
2023-01-05T20:43:53.190Z,0.20
2023-01-05T20:46:20.721Z,0.20
2023-01-05T20:48:48.793Z,0.10
2023-01-05T20:51:15.426Z,0.20
2023-01-05T20:53:42.491Z,0.20
2023-01-05T20:56:12.631Z,0.10
2023-01-05T20:58:40.372Z,0.17
2023-01-05T21:01:10.849Z,0.20
2023-01-05T21:03:38.637Z,0.20
2023-01-05T21:06:05.774Z,0.20
2023-01-05T21:08:32.467Z,0.20
2023-01-05T21:10:59.670Z,0.20
2023-01-05T21:13:30.661Z,0.10
2023-01-05T21:16:05.170Z,0.15
2023-01-05T21:18:32.778Z,0.20
2023-01-05T21:20:59.312Z,0.10
2023-01-05T21:23:29.229Z,0.30
2023-01-05T21:26:05.819Z,0.20
2023-01-05T21:28:38.067Z,0.20
2023-01-05T21:31:09.078Z,0.20
2023-01-05T21:33:38.121Z,0.28
2023-01-05T21:36:04.932Z,0.10
2023-01-05T21:39:01.850Z,0.17
2023-01-05T21:41:38.289Z,0.20
2023-01-05T21:44:05.211Z,0.20
2023-01-05T21:46:31.769Z,0.13
2023-01-05T21:48:58.277Z,0.20
2023-01-05T21:51:43.405Z,0.10
2023-01-05T21:54:29.779Z,0.20
2023-01-05T21:56:57.387Z,0.10
2023-01-05T21:59:23.788Z,0.20
2023-01-05T22:01:50.646Z,0.30
2023-01-05T22:04:17.589Z,0.20
2023-01-05T22:06:44.311Z,0.20
2023-01-05T22:09:10.810Z,0.20
2023-01-05T22:11:37.387Z,0.10
2023-01-05T22:14:04.317Z,0.20
2023-01-05T22:16:30.857Z,0.10
2023-01-05T22:18:57.428Z,0.10
2023-01-05T22:21:23.899Z,0.20
2023-01-05T22:23:50.417Z,0.10
2023-01-05T22:26:17.615Z,0.15
2023-01-05T22:28:44.965Z,0.20
2023-01-05T22:31:15.697Z,0.10
2023-01-05T22:33:43.299Z,0.22
2023-01-05T22:36:10.142Z,0.10
2023-01-05T22:38:38.244Z,0.20
2023-01-05T22:41:05.630Z,0.20
2023-01-05T22:43:32.550Z,0.10
2023-01-05T22:46:02.801Z,0.20
2023-01-05T22:48:33.175Z,0.20
2023-01-05T22:51:06.981Z,0.10
2023-01-05T22:53:33.708Z,0.20
2023-01-05T22:56:00.592Z,0.30
2023-01-05T22:58:27.771Z,0.10
2023-01-05T23:00:54.473Z,0.10
2023-01-05T23:03:21.240Z,0.30
2023-01-05T23:05:47.731Z,0.20
2023-01-05T23:08:14.569Z,0.20
2023-01-05T23:10:41.258Z,0.20
2023-01-05T23:13:07.649Z,0.20
2023-01-05T23:15:34.194Z,0.20
2023-01-05T23:18:00.730Z,0.20
2023-01-05T23:20:27.174Z,0.20
2023-01-05T23:22:53.652Z,0.20
2023-01-05T23:25:20.062Z,0.10
2023-01-05T23:27:46.517Z,0.20
2023-01-05T23:30:12.961Z,0.28
2023-01-05T23:32:39.404Z,0.20
2023-01-05T23:35:07.205Z,0.20
2023-01-05T23:37:33.645Z,0.30
2023-01-05T23:40:00.090Z,0.20
2023-01-05T23:42:46.226Z,0.20
2023-01-05T23:45:13.376Z,0.20
2023-01-05T23:47:40.005Z,0.20
2023-01-05T23:50:06.744Z,0.30
2023-01-05T23:52:33.169Z,0.20
2023-01-05T23:54:59.709Z,0.10
2023-01-05T23:57:26.187Z,0.20
2023-01-05T23:59:52.574Z,0.20
